Time;durP1;ratioP1;P1;durP2;ratioP2;P2;SDS_P1;SDS_P2;PMS_P1;PMS_P2;Temp;Humidity;BMP_temperature;BMP_pressure;BME280_temperature;BME280_humidity;BME280_pressure;Samples;Min_cycle;Max_cycle;Signal;HPM_P1;HPM_P2
2021/12/18 00:01:58;;;;;;;;;44.00;34.33;;;;;5.71;100.00;103257.19;5017985;28;44839;-83
2021/12/18 00:04:23;;;;;;;;;45.00;36.33;;;;;5.69;100.00;103251.91;5018434;28;45338;-81
2021/12/18 00:06:49;;;;;;;;;48.00;38.33;;;;;5.67;100.00;103256.31;5018518;28;44816;-81
2021/12/18 00:09:14;;;;;;;;;44.67;37.33;;;;;5.64;100.00;103244.00;5018033;28;45510;-82
2021/12/18 00:11:40;;;;;;;;;47.33;36.33;;;;;5.65;100.00;103250.16;5017562;28;45368;-82
2021/12/18 00:14:05;;;;;;;;;46.67;36.33;;;;;5.63;100.00;103244.03;5017358;28;45271;-81
2021/12/18 00:16:31;;;;;;;;;37.33;34.00;;;;;5.60;100.00;103241.41;5017426;28;45306;-80
2021/12/18 00:18:58;;;;;;;;;34.33;34.00;;;;;5.59;100.00;103243.16;5018087;28;45130;-80
2021/12/18 00:21:24;;;;;;;;;47.33;36.00;;;;;5.58;100.00;103236.16;5018706;28;45399;-82
2021/12/18 00:23:50;;;;;;;;;39.67;33.67;;;;;5.56;100.00;103239.66;5019006;28;45104;-80
2021/12/18 00:26:16;;;;;;;;;41.33;36.00;;;;;5.55;100.00;103240.56;5018461;28;44794;-82
2021/12/18 00:28:42;;;;;;;;;36.67;34.67;;;;;5.56;100.00;103232.66;5020565;28;45368;-81
2021/12/18 00:31:07;;;;;;;;;27.67;25.33;;;;;5.53;100.00;103243.22;5018595;28;45415;-82
2021/12/18 00:33:32;;;;;;;;;35.33;29.67;;;;;5.50;100.00;103239.69;5017861;28;45291;-81
2021/12/18 00:35:58;;;;;;;;;34.33;33.67;;;;;5.51;100.00;103233.53;5017836;28;44861;-80
2021/12/18 00:38:28;;;;;;;;;34.67;30.67;;;;;5.50;100.00;103239.69;5017113;28;45321;-80
2021/12/18 00:41:11;;;;;;;;;38.00;31.33;;;;;5.48;100.00;103238.84;5017434;28;44789;-82
2021/12/18 00:44:01;;;;;;;;;41.33;35.33;;;;;5.46;100.00;103236.19;5029548;28;45494;-81
2021/12/18 00:46:24;;;;;;;;;42.00;35.33;;;;;5.47;100.00;103231.84;5037692;28;44787;-80
2021/12/18 00:48:50;;;;;;;;;38.67;33.67;;;;;5.44;100.00;103226.56;5053658;28;44694;-81
2021/12/18 00:51:15;;;;;;;;;39.00;29.67;;;;;5.40;100.00;103225.69;5037961;28;44879;-82
2021/12/18 00:53:40;;;;;;;;;39.33;27.67;;;;;5.40;100.00;103220.41;5037901;28;45037;-81
2021/12/18 00:56:06;;;;;;;;;38.33;34.67;;;;;5.36;100.00;103224.81;5036775;28;45164;-81
2021/12/18 00:58:31;;;;;;;;;42.33;34.00;;;;;5.36;100.00;103213.41;5036856;28;45131;-81
2021/12/18 01:00:57;;;;;;;;;52.33;39.67;;;;;5.33;100.00;103218.72;5036872;28;45136;-81
2021/12/18 01:03:22;;;;;;;;;43.33;37.00;;;;;5.33;100.00;103218.72;5036355;28;45445;-81
2021/12/18 01:05:49;;;;;;;;;42.33;35.67;;;;;5.32;100.00;103220.47;5036729;28;44842;-81
2021/12/18 01:08:14;;;;;;;;;39.67;34.33;;;;;5.31;100.00;103226.63;5038769;28;45300;-81
2021/12/18 01:11:06;;;;;;;;;43.67;33.33;;;;;5.30;100.00;103224.88;5035558;28;45330;-81
2021/12/18 01:13:33;;;;;;;;;40.00;34.33;;;;;5.29;100.00;103225.75;5036159;28;45213;-81
2021/12/18 01:16:08;;;;;;;;;41.67;32.67;;;;;5.27;100.00;103227.53;5036266;28;44830;-80
2021/12/18 01:24:03;;;;;;;;;38.00;34.33;;;;;5.25;100.00;103226.66;5037160;28;45409;-80
2021/12/18 01:26:29;;;;;;;;;37.33;30.00;;;;;5.24;100.00;103239.84;5036414;28;44789;-79
2021/12/18 01:28:55;;;;;;;;;31.67;31.33;;;;;5.20;100.00;103236.34;5037270;28;44745;-80
2021/12/18 01:31:21;;;;;;;;;37.33;30.33;;;;;5.19;100.00;103229.31;5041127;28;44850;-80
2021/12/18 01:33:46;;;;;;;;;49.67;41.00;;;;;5.16;100.00;103226.69;5040063;28;45386;-81
2021/12/18 01:36:11;;;;;;;;;34.33;34.00;;;;;5.14;100.00;103237.25;5037257;28;44763;-81
2021/12/18 01:38:37;;;;;;;;;52.67;44.67;;;;;5.13;100.00;103234.63;5036584;28;45261;-81
2021/12/18 01:41:03;;;;;;;;;41.00;35.00;;;;;5.14;100.00;103239.88;5035202;28;45533;-79
2021/12/18 01:51:32;;;;;;;;;35.67;32.33;;;;;5.07;100.00;103242.53;5016095;28;44624;-79
2021/12/18 01:53:59;;;;;;;;;40.00;36.00;;;;;5.03;100.00;103243.41;5015794;28;45467;-80
2021/12/18 01:56:27;;;;;;;;;49.33;36.67;;;;;5.01;100.00;103234.66;5015740;28;45258;-81
2021/12/18 01:58:53;;;;;;;;;52.00;41.33;;;;;4.98;100.00;103232.94;5015942;28;44861;-78
2021/12/18 02:01:20;;;;;;;;;57.67;44.67;;;;;4.98;100.00;103237.28;5015745;28;44847;-80
2021/12/18 02:03:47;;;;;;;;;42.00;33.67;;;;;4.96;100.00;103236.44;5015237;28;45375;-80
2021/12/18 02:06:13;;;;;;;;;38.67;35.33;;;;;4.94;100.00;103236.44;5015640;28;44680;-79
2021/12/18 02:08:39;;;;;;;;;41.67;33.67;;;;;4.92;100.00;103230.28;5015113;28;45363;-79
2021/12/18 02:21:32;;;;;;;;;36.67;31.00;;;;;4.82;100.00;103241.75;5015854;28;44885;-79
2021/12/18 02:23:58;;;;;;;;;25.33;22.67;;;;;4.80;100.00;103238.25;5015547;28;45106;-80
2021/12/18 02:26:24;;;;;;;;;38.33;34.67;;;;;4.77;100.00;103238.25;5015295;28;44765;-79
2021/12/18 02:28:51;;;;;;;;;33.00;31.33;;;;;4.75;100.00;103238.25;5015969;28;45521;-79
2021/12/18 02:31:18;;;;;;;;;44.00;35.00;;;;;4.77;100.00;103241.75;5014482;28;44918;-80
2021/12/18 02:33:44;;;;;;;;;34.67;33.00;;;;;4.76;100.00;103236.50;5015305;28;45144;-79
2021/12/18 02:36:12;;;;;;;;;38.33;34.33;;;;;4.72;100.00;103237.38;5015413;28;45536;-78
2021/12/18 02:39:16;;;;;;;;;44.67;35.00;;;;;4.72;100.00;103240.00;5015396;28;45242;-79
2021/12/18 02:41:40;;;;;;;;;62.00;49.00;;;;;4.71;100.00;103248.78;5014715;28;45241;-80
2021/12/18 02:44:11;;;;;;;;;44.33;38.33;;;;;4.67;100.00;103242.66;5014966;28;44986;-79
2021/12/18 02:46:38;;;;;;;;;37.33;33.33;;;;;4.66;100.00;103230.38;5013861;28;45325;-78
2021/12/18 02:49:13;;;;;;;;;43.33;35.33;;;;;4.64;100.00;103237.38;5015630;28;44892;-79
2021/12/18 02:51:39;;;;;;;;;55.33;42.33;;;;;4.64;100.00;103233.03;5015410;28;44822;-79
2021/12/18 02:54:05;;;;;;;;;25.00;21.00;;;;;4.61;100.00;103237.41;5015481;28;45266;-78
2021/12/18 02:56:30;;;;;;;;;53.00;37.00;;;;;4.58;100.00;103242.66;5015892;28;45365;-80
2021/12/18 02:59:03;;;;;;;;;38.67;34.33;;;;;4.58;100.00;103251.44;5020002;28;44714;-79
2021/12/18 03:01:29;;;;;;;;;47.33;38.67;;;;;4.57;100.00;103240.91;5019731;28;45348;-80
2021/12/18 03:03:56;;;;;;;;;41.67;36.67;;;;;4.54;100.00;103239.16;5019966;28;45243;-79
2021/12/18 03:06:31;;;;;;;;;30.33;27.00;;;;;4.52;100.00;103235.66;5018317;28;45407;-79
2021/12/18 03:27:43;;;;;;;;;67.67;48.00;;;;;4.43;100.00;103238.31;5027243;28;45424;-79
2021/12/18 03:30:09;;;;;;;;;49.33;40.00;;;;;4.46;100.00;103242.69;5041977;28;45287;-76
2021/12/18 03:32:35;;;;;;;;;53.33;45.33;;;;;4.48;100.00;103241.78;5025926;28;44797;-78
2021/12/18 03:35:01;;;;;;;;;72.00;54.33;;;;;4.52;100.00;103237.41;5018869;28;45181;-80
2021/12/18 03:37:26;;;;;;;;;55.33;41.67;;;;;4.50;100.00;103245.31;5016787;28;45384;-79
2021/12/18 03:39:52;;;;;;;;;53.00;39.67;;;;;4.54;100.00;103247.03;5018432;28;44841;-80
2021/12/18 03:42:18;;;;;;;;;57.33;43.67;;;;;4.57;100.00;103254.94;5018042;28;45501;-78
2021/12/18 03:44:43;;;;;;;;;65.00;51.67;;;;;4.56;100.00;103240.03;5019152;28;45490;-79
2021/12/18 03:47:09;;;;;;;;;37.33;34.67;;;;;4.56;100.00;103241.81;5020458;28;45466;-79
2021/12/18 03:49:34;;;;;;;;;55.33;43.33;;;;;4.52;100.00;103234.78;5018284;28;45439;-80
2021/12/18 03:52:00;;;;;;;;;53.00;45.00;;;;;4.52;100.00;103233.03;5017927;28;45225;-79
2021/12/18 03:54:25;;;;;;;;;35.67;26.67;;;;;4.51;100.00;103230.41;5017543;28;45315;-80
2021/12/18 03:56:51;;;;;;;;;39.33;31.67;;;;;4.52;100.00;103229.53;5017944;28;44904;-79
2021/12/18 03:59:16;;;;;;;;;44.33;37.00;;;;;4.54;100.00;103228.63;5017479;28;44818;-78
2021/12/18 04:01:42;;;;;;;;;38.67;33.67;;;;;4.51;100.00;103233.91;5017712;28;44917;-79
2021/12/18 04:04:07;;;;;;;;;49.67;34.00;;;;;4.56;100.00;103233.91;5032671;28;46624;-78
2021/12/18 04:06:33;;;;;;;;;49.33;38.00;;;;;4.56;100.00;103231.28;5017175;28;44845;-78
2021/12/18 04:08:59;;;;;;;;;44.33;33.33;;;;;4.60;100.00;103233.03;5017324;28;45162;-79
2021/12/18 04:11:24;;;;;;;;;50.33;38.00;;;;;4.66;100.00;103226.88;5017177;28;44981;-79
2021/12/18 04:13:50;;;;;;;;;46.33;38.00;;;;;4.73;100.00;103229.47;5017151;28;45138;-79
2021/12/18 04:16:16;;;;;;;;;51.33;35.00;;;;;4.74;100.00;103228.59;5017732;28;44711;-78
2021/12/18 04:18:42;;;;;;;;;42.00;38.33;;;;;4.76;100.00;103233.84;5018031;28;45324;-79
2021/12/18 04:21:08;;;;;;;;;50.67;39.33;;;;;4.82;100.00;103226.81;5017708;28;45558;-79
2021/12/18 04:23:33;;;;;;;;;49.33;36.67;;;;;4.88;100.00;103231.19;5017234;28;45423;-79
2021/12/18 04:25:59;;;;;;;;;45.33;38.33;;;;;4.91;100.00;103228.53;5017414;28;44869;-79
2021/12/18 04:28:24;;;;;;;;;41.00;35.00;;;;;4.92;100.00;103217.13;5019432;28;44782;-78
2021/12/18 04:30:50;;;;;;;;;48.67;32.00;;;;;4.95;100.00;103221.50;5019082;28;44801;-78
2021/12/18 04:33:16;;;;;;;;;51.67;40.33;;;;;4.97;100.00;103222.38;5017995;28;46201;-79
2021/12/18 04:35:42;;;;;;;;;49.00;36.00;;;;;5.01;100.00;103226.75;5017018;28;44809;-80
2021/12/18 04:38:08;;;;;;;;;44.33;38.33;;;;;5.03;100.00;103235.50;5018061;28;45389;-80
2021/12/18 04:40:35;;;;;;;;;45.00;36.00;;;;;5.08;100.00;103223.22;5016811;28;44782;-79
2021/12/18 04:43:01;;;;;;;;;50.33;40.33;;;;;5.16;100.00;103226.69;5016294;28;45495;-80
2021/12/18 04:45:27;;;;;;;;;53.33;40.33;;;;;5.15;100.00;103222.31;5016738;28;45414;-79
2021/12/18 04:47:53;;;;;;;;;42.67;35.00;;;;;5.13;100.00;103227.59;5016810;28;45333;-79
2021/12/18 04:50:19;;;;;;;;;37.00;34.67;;;;;5.17;100.00;103228.44;5016836;28;45374;-80
2021/12/18 04:52:45;;;;;;;;;43.67;37.00;;;;;5.23;100.00;103230.19;5015572;28;45271;-80
2021/12/18 04:55:11;;;;;;;;;45.33;36.00;;;;;5.29;100.00;103236.31;5016858;28;44777;-79
2021/12/18 04:57:37;;;;;;;;;42.67;32.33;;;;;5.29;100.00;103235.44;5016609;28;45236;-78
2021/12/18 05:00:05;;;;;;;;;42.67;36.00;;;;;5.26;100.00;103228.41;5016901;28;44663;-79
2021/12/18 05:02:37;;;;;;;;;45.00;37.00;;;;;5.28;100.00;103223.13;5016348;28;45158;-79
2021/12/18 05:05:05;;;;;;;;;49.33;42.00;;;;;5.31;100.00;103236.28;5016346;28;45358;-79
2021/12/18 05:07:31;;;;;;;;;61.33;43.67;;;;;5.37;100.00;103241.53;5016706;28;44787;-79
2021/12/18 05:09:56;;;;;;;;;55.00;39.33;;;;;5.40;100.00;103247.66;5016881;28;44853;-78
2021/12/18 05:12:22;;;;;;;;;54.33;41.33;;;;;5.44;100.00;103250.28;5016724;28;45131;-79
2021/12/18 05:14:47;;;;;;;;;51.67;41.67;;;;;5.43;100.00;103248.53;5018232;28;45281;-78
2021/12/18 05:17:12;;;;;;;;;53.33;40.00;;;;;5.47;100.00;103248.53;5017281;28;45450;-80
2021/12/18 05:19:38;;;;;;;;;54.67;43.00;;;;;5.53;100.00;103250.25;5016128;28;45351;-79
2021/12/18 05:22:05;;;;;;;;;42.67;33.33;;;;;5.59;100.00;103244.94;5015524;28;45216;-78
2021/12/18 05:24:31;;;;;;;;;56.00;46.33;;;;;5.61;100.00;103241.41;5016554;28;44815;-78
2021/12/18 05:26:57;;;;;;;;;53.67;39.67;;;;;5.57;100.00;103242.31;5016339;28;45367;-78
2021/12/18 05:29:22;;;;;;;;;57.33;47.00;;;;;5.56;100.00;103243.19;5017482;28;44755;-78
2021/12/18 05:31:48;;;;;;;;;44.33;39.67;;;;;5.53;100.00;103242.34;5016889;28;45233;-78
2021/12/18 05:34:21;;;;;;;;;31.00;29.00;;;;;5.54;100.00;103246.72;5016440;28;44676;-79
2021/12/18 05:39:16;;;;;;;;;40.33;37.33;;;;;5.52;100.00;103236.19;5016806;28;45366;-79
2021/12/18 05:41:42;;;;;;;;;34.00;33.67;;;;;5.51;100.00;103242.34;5018998;28;45400;-79
2021/12/18 05:44:07;;;;;;;;;49.33;39.00;;;;;5.50;100.00;103239.69;5018696;28;44690;-79
2021/12/18 05:46:34;;;;;;;;;51.33;44.33;;;;;5.50;100.00;103237.94;5017937;28;45387;-79
2021/12/18 05:48:59;;;;;;;;;45.33;37.00;;;;;5.52;100.00;103235.31;5018185;28;44828;-79
2021/12/18 05:51:25;;;;;;;;;52.33;37.33;;;;;5.53;100.00;103237.94;5016597;28;45808;-79
2021/12/18 05:53:50;;;;;;;;;43.67;36.00;;;;;5.58;100.00;103241.41;5016437;28;45003;-78
2021/12/18 05:56:16;;;;;;;;;30.00;21.67;;;;;5.58;100.00;103233.50;5016859;28;44851;-79
2021/12/18 05:58:43;;;;;;;;;35.00;34.33;;;;;5.55;100.00;103233.50;5017004;28;44781;-78
2021/12/18 06:01:09;;;;;;;;;43.67;36.33;;;;;5.54;100.00;103234.41;5019114;28;45064;-80
2021/12/18 06:03:34;;;;;;;;;39.67;33.67;;;;;5.53;100.00;103227.38;5015612;28;45213;-78
2021/12/18 06:06:00;;;;;;;;;51.00;37.33;;;;;5.51;100.00;103226.53;5016528;28;45411;-79
2021/12/18 06:08:26;;;;;;;;;32.00;28.67;;;;;5.49;100.00;103227.41;5015898;28;45202;-78
2021/12/18 06:10:52;;;;;;;;;45.33;36.00;;;;;5.46;100.00;103222.16;5015402;28;45267;-80
2021/12/18 06:13:17;;;;;;;;;41.00;36.33;;;;;5.41;100.00;103222.16;5015433;28;45473;-81
2021/12/18 06:15:43;;;;;;;;;37.67;32.00;;;;;5.34;100.00;103225.75;5016499;28;45243;-79
2021/12/18 06:18:09;;;;;;;;;42.33;37.00;;;;;5.29;100.00;103222.25;5015651;28;45407;-80
2021/12/18 06:20:34;;;;;;;;;40.33;34.33;;;;;5.27;100.00;103222.28;5015376;28;45365;-81
2021/12/18 06:23:00;;;;;;;;;30.33;30.00;;;;;5.24;100.00;103216.13;5015318;28;44836;-81
2021/12/18 06:25:25;;;;;;;;;40.00;34.00;;;;;5.21;100.00;103217.00;5015402;28;44807;-80
2021/12/18 06:27:50;;;;;;;;;44.67;34.00;;;;;5.20;100.00;103212.63;5015663;28;44881;-83
2021/12/18 06:30:18;;;;;;;;;45.67;37.00;;;;;5.18;100.00;103213.53;5016330;28;45388;-84
2021/12/18 06:32:43;;;;;;;;;53.00;37.67;;;;;5.15;100.00;103217.91;5017182;28;45543;-80
2021/12/18 06:35:09;;;;;;;;;37.67;32.00;;;;;5.12;100.00;103217.91;5022000;28;45207;-80
2021/12/18 06:37:35;;;;;;;;;35.33;31.33;;;;;5.09;100.00;103231.13;5021663;28;44864;-81
2021/12/18 06:40:01;;;;;;;;;40.67;31.33;;;;;5.08;100.00;103228.50;5020629;28;45180;-81
2021/12/18 06:42:28;;;;;;;;;39.00;33.33;;;;;5.06;100.00;103232.88;5020544;28;44857;-81
2021/12/18 06:44:53;;;;;;;;;41.33;36.33;;;;;5.04;100.00;103227.63;5021491;28;45628;-81
2021/12/18 06:47:19;;;;;;;;;29.00;26.00;;;;;5.03;100.00;103228.53;5020327;28;44845;-86
2021/12/18 06:49:44;;;;;;;;;38.33;34.67;;;;;5.01;100.00;103227.63;5019489;28;45437;-82
2021/12/18 06:52:09;;;;;;;;;45.67;36.33;;;;;5.02;100.00;103232.00;5018795;28;45539;-83
2021/12/18 06:54:35;;;;;;;;;40.00;30.67;;;;;5.02;100.00;103233.78;5018645;28;44727;-81
2021/12/18 06:57:02;;;;;;;;;36.67;34.33;;;;;5.04;100.00;103230.25;5019392;28;44837;-80
2021/12/18 06:59:28;;;;;;;;;66.33;50.67;;;;;5.05;100.00;103236.41;5018632;28;45329;-82
2021/12/18 07:01:53;;;;;;;;;46.33;38.33;;;;;5.06;100.00;103235.50;5019614;28;44764;-83
2021/12/18 07:04:19;;;;;;;;;45.33;33.67;;;;;5.05;100.00;103239.91;5019391;28;45313;-82
2021/12/18 07:06:45;;;;;;;;;56.00;39.33;;;;;5.04;100.00;103232.03;5019932;28;45237;-82
2021/12/18 07:09:10;;;;;;;;;41.00;36.00;;;;;5.01;100.00;103240.78;5020835;28;45210;-81
2021/12/18 07:11:36;;;;;;;;;40.33;35.67;;;;;4.99;100.00;103239.94;5020815;28;44771;-81
2021/12/18 07:14:01;;;;;;;;;51.67;38.33;;;;;4.96;100.00;103234.66;5018522;28;45351;-82
2021/12/18 07:16:26;;;;;;;;;50.67;37.00;;;;;4.97;100.00;103243.44;5017716;28;44860;-82
2021/12/18 07:18:52;;;;;;;;;27.33;24.67;;;;;4.98;100.00;103237.28;5019494;28;45652;-83
2021/12/18 07:21:18;;;;;;;;;35.33;34.33;;;;;4.98;100.00;103239.91;5019727;28;44832;-81
2021/12/18 07:23:43;;;;;;;;;46.67;39.33;;;;;4.98;100.00;103240.84;5021530;28;44807;-82
2021/12/18 07:26:08;;;;;;;;;42.67;38.00;;;;;4.97;100.00;103239.06;5022837;28;44853;-83
2021/12/18 07:28:34;;;;;;;;;40.33;36.00;;;;;4.96;100.00;103241.69;5022425;28;45534;-82
2021/12/18 07:30:59;;;;;;;;;58.33;46.33;;;;;4.94;100.00;103239.09;5019110;28;45331;-83
2021/12/18 07:33:26;;;;;;;;;74.33;57.33;;;;;4.93;100.00;103241.69;5022317;28;45566;-87
2021/12/18 07:35:52;;;;;;;;;53.33;44.67;;;;;4.90;100.00;103248.75;5023209;28;44861;-84
2021/12/18 07:38:17;;;;;;;;;47.33;37.67;;;;;4.89;100.00;103260.16;5019374;28;45236;-83
2021/12/18 07:40:43;;;;;;;;;50.00;35.67;;;;;4.88;100.00;103257.50;5021912;28;44875;-82
2021/12/18 07:43:10;;;;;;;;;48.33;41.33;;;;;4.89;100.00;103252.25;5018275;28;44841;-82
2021/12/18 07:45:35;;;;;;;;;46.33;37.00;;;;;4.89;100.00;103259.28;5017015;28;45321;-81
2021/12/18 07:48:02;;;;;;;;;22.67;22.33;;;;;4.90;100.00;103258.41;5032866;28;47159;-83
2021/12/18 07:50:28;;;;;;;;;30.67;28.00;;;;;4.90;100.00;103264.53;5016757;28;45440;-82
2021/12/18 07:52:54;;;;;;;;;44.67;37.33;;;;;4.93;100.00;103262.78;5016386;28;45435;-82
2021/12/18 07:55:19;;;;;;;;;28.00;28.00;;;;;4.91;100.00;103257.50;5018267;28;44902;-82
2021/12/18 07:57:45;;;;;;;;;34.33;32.67;;;;;4.91;100.00;103257.50;5018389;28;45394;-80
2021/12/18 08:00:13;;;;;;;;;41.33;35.67;;;;;4.95;100.00;103254.00;5017539;28;44736;-81
2021/12/18 08:02:39;;;;;;;;;45.00;35.00;;;;;4.96;100.00;103252.22;5018024;28;45353;-82
2021/12/18 08:05:05;;;;;;;;;37.00;32.67;;;;;4.98;100.00;103248.72;5018365;28;44964;-83
2021/12/18 08:07:31;;;;;;;;;42.00;37.00;;;;;5.01;100.00;103256.59;5021514;28;45069;-83
2021/12/18 08:09:56;;;;;;;;;41.00;37.67;;;;;5.03;100.00;103257.50;5003536;28;44753;-82
2021/12/18 08:12:22;;;;;;;;;38.67;34.33;;;;;5.03;100.00;103256.59;5021407;28;45404;-83
2021/12/18 08:14:47;;;;;;;;;42.67;32.33;;;;;5.03;100.00;103252.22;5020548;28;45479;-82
2021/12/18 08:17:12;;;;;;;;;37.33;36.00;;;;;5.06;100.00;103252.19;5018567;28;45377;-82
2021/12/18 08:19:38;;;;;;;;;43.00;35.00;;;;;5.07;100.00;103246.03;5018559;28;45445;-87
2021/12/18 08:22:03;;;;;;;;;36.00;32.33;;;;;5.08;100.00;103247.81;5019311;28;45379;-85
2021/12/18 08:24:29;;;;;;;;;42.67;34.67;;;;;5.14;100.00;103253.06;5020993;28;45507;-84
2021/12/18 08:26:55;;;;;;;;;49.67;40.00;;;;;5.18;100.00;103255.69;5021264;28;46046;-83
2021/12/18 08:29:21;;;;;;;;;50.00;36.67;;;;;5.18;100.00;103256.56;5022885;28;45273;-81
2021/12/18 08:31:47;;;;;;;;;49.00;42.00;;;;;5.23;100.00;103256.53;5024102;28;45497;-82
2021/12/18 08:34:12;;;;;;;;;44.67;38.67;;;;;5.26;100.00;103270.56;5019041;28;45443;-83
2021/12/18 08:36:38;;;;;;;;;57.00;42.67;;;;;5.25;100.00;103267.94;5017377;28;44929;-82
2021/12/18 08:39:03;;;;;;;;;43.67;36.67;;;;;5.29;100.00;103261.78;5020998;28;45364;-86
2021/12/18 08:41:29;;;;;;;;;54.00;43.33;;;;;5.34;100.00;103254.72;5025415;28;45503;-86
2021/12/18 08:43:55;;;;;;;;;25.33;21.67;;;;;5.36;100.00;103259.09;5020371;28;45356;-85
2021/12/18 08:46:20;;;;;;;;;40.00;37.33;;;;;5.43;100.00;103261.72;5018854;28;45693;-88
2021/12/18 08:48:46;;;;;;;;;40.67;32.33;;;;;5.47;100.00;103258.19;5017623;28;45293;-86
2021/12/18 08:51:11;;;;;;;;;52.00;40.67;;;;;5.49;100.00;103267.81;5020030;28;44776;-89
2021/12/18 08:53:37;;;;;;;;;48.33;37.67;;;;;5.52;100.00;103259.91;5018258;28;44897;-82
2021/12/18 08:56:02;;;;;;;;;29.33;27.67;;;;;5.58;100.00;103265.16;5017927;28;45348;-83
2021/12/18 08:58:28;;;;;;;;;42.67;37.67;;;;;5.64;100.00;103262.47;5019885;28;44832;-84
2021/12/18 09:00:53;;;;;;;;;43.67;34.67;;;;;5.68;100.00;103251.03;5021282;28;45399;-83
2021/12/18 09:03:19;;;;;;;;;52.00;41.33;;;;;5.66;100.00;103260.72;5017912;28;44960;-83
2021/12/18 09:05:44;;;;;;;;;38.33;31.33;;;;;5.67;100.00;103248.41;5017559;28;45475;-84
2021/12/18 09:08:10;;;;;;;;;47.67;38.00;;;;;5.70;100.00;103250.13;5016909;28;44831;-82
2021/12/18 09:10:35;;;;;;;;;42.33;38.00;;;;;5.74;100.00;103247.47;5017066;28;45446;-84
2021/12/18 09:13:01;;;;;;;;;36.33;32.00;;;;;5.83;100.00;103249.19;5018140;28;44872;-83
2021/12/18 09:15:27;;;;;;;;;41.33;34.00;;;;;5.92;100.00;103252.66;5015489;28;45541;-84
2021/12/18 09:17:52;;;;;;;;;40.67;31.33;;;;;5.97;100.00;103244.72;5016929;28;45351;-84
2021/12/18 09:20:18;;;;;;;;;37.67;35.00;;;;;6.01;100.00;103246.44;5015710;28;44860;-83
2021/12/18 09:22:44;;;;;;;;;37.67;33.33;;;;;6.06;100.00;103238.50;5017571;28;45363;-84
2021/12/18 09:25:10;;;;;;;;;42.67;38.00;;;;;6.08;100.00;103229.66;5017763;28;45452;-85
2021/12/18 09:27:36;;;;;;;;;36.00;34.00;;;;;6.09;100.00;103228.81;5018389;28;44745;-86
2021/12/18 09:30:08;;;;;;;;;40.33;35.00;;;;;6.12;100.00;103226.13;5023008;28;44830;-88
2021/12/18 09:32:33;;;;;;;;;39.33;34.67;;;;;6.08;100.00;103216.47;5021179;28;44889;-85
2021/12/18 09:34:59;;;;;;;;;40.00;37.00;;;;;6.09;100.00;103218.25;5019478;28;45194;-84
2021/12/18 09:37:24;;;;;;;;;40.67;35.00;;;;;6.14;100.00;103221.72;5026911;28;44743;-86
2021/12/18 09:39:50;;;;;;;;;35.33;32.67;;;;;6.11;100.00;103223.50;5026988;28;45154;-86
2021/12/18 09:42:15;;;;;;;;;33.33;29.67;;;;;6.14;100.00;103207.63;5024854;28;45498;-85
2021/12/18 09:44:40;;;;;;;;;26.00;25.00;;;;;6.12;100.00;103215.56;5023689;28;46939;-85
2021/12/18 09:47:06;;;;;;;;;34.33;30.00;;;;;6.18;100.00;103212.84;5019967;28;45285;-84
2021/12/18 09:49:32;;;;;;;;;34.33;28.33;;;;;6.23;100.00;103214.59;5033426;28;44831;-84
2021/12/18 09:51:58;;;;;;;;;39.33;31.33;;;;;6.26;100.00;103209.28;5017060;28;44850;-84
2021/12/18 09:54:24;;;;;;;;;42.67;37.00;;;;;6.28;100.00;103212.78;5017452;28;45092;-85
2021/12/18 09:56:50;;;;;;;;;35.00;29.00;;;;;6.36;100.00;103219.75;5017324;28;45028;-85
2021/12/18 09:59:16;;;;;;;;;35.67;32.00;;;;;6.41;100.00;103215.28;5020356;28;45492;-87
2021/12/18 10:01:42;;;;;;;;;40.67;35.00;;;;;6.43;100.00;103210.00;5022793;28;45603;-89
2021/12/18 10:04:30;;;;;;;;;37.67;28.67;;;;;6.52;100.00;103199.34;5038925;28;45353;-88
2021/12/18 10:06:58;;;;;;;;;37.33;34.67;;;;;6.53;100.00;103200.25;5024997;28;44643;-87
2021/12/18 10:09:23;;;;;;;;;40.67;32.00;;;;;6.61;100.00;103204.53;5040902;28;44835;-84
2021/12/18 10:11:53;;;;;;;;;38.00;31.33;;;;;6.68;100.00;103198.31;5021023;28;44801;-84
2021/12/18 10:14:32;;;;;;;;;40.33;33.67;;;;;6.74;100.00;103201.75;5009089;28;45301;-87
2021/12/18 10:16:57;;;;;;;;;41.67;32.67;;;;;6.80;100.00;103193.75;4996995;28;45391;-86
2021/12/18 10:19:35;;;;;;;;;35.00;30.67;;;;;6.77;100.00;103196.44;5001849;28;45485;-85
2021/12/18 10:22:02;;;;;;;;;31.00;28.33;;;;;6.82;100.00;103197.28;5030341;28;44717;-85
2021/12/18 10:24:29;;;;;;;;;28.00;25.67;;;;;6.88;100.00;103195.44;5031838;28;45340;-84
2021/12/18 10:26:57;;;;;;;;;38.33;33.33;;;;;6.97;100.00;103193.56;5024426;28;44766;-85
2021/12/18 10:29:35;;;;;;;;;38.67;35.67;;;;;7.04;100.00;103184.66;5024401;28;45448;-85
2021/12/18 10:32:08;;;;;;;;;33.67;30.00;;;;;7.12;100.00;103185.44;5017836;28;44754;-84
2021/12/18 10:34:34;;;;;;;;;30.33;29.67;;;;;7.21;100.00;103188.84;5013642;28;45416;-85
2021/12/18 10:37:14;;;;;;;;;33.33;31.00;;;;;7.28;100.00;103184.34;5031661;28;45435;-85
2021/12/18 10:39:50;;;;;;;;;40.33;32.33;;;;;7.33;100.00;103178.97;5018338;28;44831;-86
2021/12/18 10:42:45;;;;;;;;;33.33;30.67;;;;;7.40;100.00;103180.66;5019083;28;44842;-85
2021/12/18 10:45:16;;;;;;;;;32.00;28.00;;;;;7.43;100.00;103180.59;5019480;28;45010;-86
2021/12/18 10:47:49;;;;;;;;;31.67;30.67;;;;;7.46;100.00;103177.94;5005275;28;44903;-86
2021/12/18 10:50:26;;;;;;;;;30.00;29.67;;;;;7.44;100.00;103170.00;5022987;28;45352;-88
2021/12/18 10:53:04;;;;;;;;;35.33;32.33;;;;;7.51;100.00;103172.56;5016658;28;44875;-85
2021/12/18 10:55:33;;;;;;;;;39.00;33.67;;;;;7.53;100.00;103173.41;5016702;28;45519;-86
2021/12/18 10:57:58;;;;;;;;;26.33;25.67;;;;;7.52;100.00;103172.53;5002566;28;46107;-84
2021/12/18 11:00:34;;;;;;;;;34.33;31.00;;;;;7.56;100.00;103165.44;5018017;28;45430;-85
2021/12/18 11:03:13;;;;;;;;;25.33;19.33;;;;;7.64;100.00;103161.78;5019153;28;45499;-86
2021/12/18 11:05:39;;;;;;;;;29.33;27.67;;;;;7.74;100.00;103162.50;5021284;28;45205;-87
2021/12/18 11:08:09;;;;;;;;;30.67;27.67;;;;;7.86;100.00;103159.66;5003894;28;45271;-86
2021/12/18 11:10:55;;;;;;;;;32.67;32.00;;;;;7.92;100.00;103158.66;5018382;28;44857;-86
2021/12/18 11:13:45;;;;;;;;;27.33;25.00;;;;;7.98;100.00;103148.88;5019399;28;45297;-89
2021/12/18 11:16:12;;;;;;;;;38.00;32.33;;;;;8.01;100.00;103142.63;5014669;28;45424;-84
2021/12/18 11:18:37;;;;;;;;;31.67;27.67;;;;;8.13;100.00;103141.56;5014061;28;44812;-85
2021/12/18 11:21:03;;;;;;;;;41.33;33.67;;;;;8.15;100.00;103148.56;5017960;28;45028;-86
2021/12/18 11:23:39;;;;;;;;;40.00;34.00;;;;;8.18;100.00;103156.44;5020234;28;44824;-86
2021/12/18 11:26:09;;;;;;;;;34.33;31.00;;;;;8.27;100.00;103151.88;5018754;28;45076;-85
2021/12/18 11:28:41;;;;;;;;;36.00;33.00;;;;;8.30;100.00;103152.69;5048720;28;45383;-88
2021/12/18 11:31:07;;;;;;;;;44.00;35.33;;;;;8.37;100.00;103159.66;5019892;28;44732;-87
2021/12/18 11:33:34;;;;;;;;;68.67;48.67;;;;;8.44;100.00;103155.13;5019979;28;44782;-87
2021/12/18 11:36:03;;;;;;;;;36.00;30.00;;;;;8.49;100.00;103154.13;5019840;28;46099;-88
2021/12/18 11:38:30;;;;;;;;;35.00;32.00;;;;;8.49;100.00;103145.31;5021855;28;44811;-88
2021/12/18 11:40:57;;;;;;;;;47.67;37.67;;;;;8.58;100.00;103141.59;5027529;28;45469;-87
2021/12/18 11:43:41;;;;;;;;;35.67;32.00;;;;;8.62;100.00;103138.00;5029913;28;44893;-89
2021/12/18 11:46:37;;;;;;;;;21.00;17.33;;;;;8.68;100.00;103128.13;5026401;28;45363;-87
2021/12/18 11:49:08;;;;;;;;;37.33;33.33;;;;;8.69;100.00;103118.41;5014078;28;44770;-88
2021/12/18 11:51:34;;;;;;;;;36.00;33.67;;;;;8.70;100.00;103123.69;5023765;28;44886;-87
2021/12/18 11:54:05;;;;;;;;;31.67;28.67;;;;;8.68;100.00;103120.19;5029953;28;44835;-88
2021/12/18 11:56:48;;;;;;;;;28.00;28.00;;;;;8.77;100.00;103124.44;5025704;28;45251;-86